sensor_id;sensor_type;location;lat;lon;timestamp;P1;durP1;ratioP1;P2;durP2;ratioP2
19251;SDS011;9760;50.944;5.304;2023-05-01T00:00:06;8.03;;;2.20;;
19251;SDS011;9760;50.944;5.304;2023-05-01T00:02:33;12.00;;;2.30;;
19251;SDS011;9760;50.944;5.304;2023-05-01T00:04:59;6.53;;;2.63;;
19251;SDS011;9760;50.944;5.304;2023-05-01T00:07:25;4.20;;;1.83;;
19251;SDS011;9760;50.944;5.304;2023-05-01T00:09:55;7.33;;;2.17;;
19251;SDS011;9760;50.944;5.304;2023-05-01T00:12:21;8.93;;;2.30;;
19251;SDS011;9760;50.944;5.304;2023-05-01T00:14:46;3.97;;;2.17;;
19251;SDS011;9760;50.944;5.304;2023-05-01T00:17:12;5.27;;;2.57;;
19251;SDS011;9760;50.944;5.304;2023-05-01T00:19:38;5.83;;;2.07;;
19251;SDS011;9760;50.944;5.304;2023-05-01T00:22:04;8.27;;;1.70;;
19251;SDS011;9760;50.944;5.304;2023-05-01T00:24:30;5.40;;;1.90;;
19251;SDS011;9760;50.944;5.304;2023-05-01T00:26:56;4.47;;;1.83;;
19251;SDS011;9760;50.944;5.304;2023-05-01T00:29:22;7.17;;;1.77;;
19251;SDS011;9760;50.944;5.304;2023-05-01T00:31:47;10.13;;;1.90;;
19251;SDS011;9760;50.944;5.304;2023-05-01T00:34:13;7.07;;;2.00;;
19251;SDS011;9760;50.944;5.304;2023-05-01T00:36:39;6.10;;;1.70;;
19251;SDS011;9760;50.944;5.304;2023-05-01T00:39:04;4.53;;;1.60;;
19251;SDS011;9760;50.944;5.304;2023-05-01T00:41:31;7.90;;;1.77;;
19251;SDS011;9760;50.944;5.304;2023-05-01T00:44:00;3.63;;;1.70;;
19251;SDS011;9760;50.944;5.304;2023-05-01T00:46:26;8.90;;;1.87;;
19251;SDS011;9760;50.944;5.304;2023-05-01T00:48:54;3.63;;;1.60;;
19251;SDS011;9760;50.944;5.304;2023-05-01T00:51:21;3.20;;;1.60;;
19251;SDS011;9760;50.944;5.304;2023-05-01T00:53:47;4.47;;;1.90;;
19251;SDS011;9760;50.944;5.304;2023-05-01T00:56:13;4.00;;;1.90;;
19251;SDS011;9760;50.944;5.304;2023-05-01T00:58:39;7.23;;;2.27;;
19251;SDS011;9760;50.944;5.304;2023-05-01T01:01:06;3.17;;;1.70;;
19251;SDS011;9760;50.944;5.304;2023-05-01T01:03:33;7.47;;;1.80;;
19251;SDS011;9760;50.944;5.304;2023-05-01T01:06:03;3.53;;;1.60;;
19251;SDS011;9760;50.944;5.304;2023-05-01T01:08:37;3.80;;;1.67;;
19251;SDS011;9760;50.944;5.304;2023-05-01T01:11:16;4.40;;;1.80;;
19251;SDS011;9760;50.944;5.304;2023-05-01T01:13:57;6.00;;;1.83;;
19251;SDS011;9760;50.944;5.304;2023-05-01T01:16:33;4.43;;;1.47;;
19251;SDS011;9760;50.944;5.304;2023-05-01T01:22:32;4.13;;;1.90;;
19251;SDS011;9760;50.944;5.304;2023-05-01T01:25:21;5.03;;;1.70;;
19251;SDS011;9760;50.944;5.304;2023-05-01T01:33:24;4.67;;;;;
19251;SDS011;9760;50.944;5.304;2023-05-01T01:36:01;6.00;;;2.03;;
19251;SDS011;9760;50.944;5.304;2023-05-01T01:38:35;4.97;;;1.47;;
19251;SDS011;9760;50.944;5.304;2023-05-01T01:41:07;7.43;;;2.20;;
19251;SDS011;9760;50.944;5.304;2023-05-01T01:43:39;3.03;;;1.60;;
19251;SDS011;9760;50.944;5.304;2023-05-01T01:46:09;2.90;;;1.93;;
19251;SDS011;9760;50.944;5.304;2023-05-01T01:48:36;4.03;;;1.90;;
19251;SDS011;9760;50.944;5.304;2023-05-01T01:51:07;5.87;;;1.97;;
19251;SDS011;9760;50.944;5.304;2023-05-01T01:53:37;4.27;;;2.10;;
19251;SDS011;9760;50.944;5.304;2023-05-01T01:56:05;3.37;;;2.00;;
19251;SDS011;9760;50.944;5.304;2023-05-01T01:58:32;11.07;;;2.30;;
19251;SDS011;9760;50.944;5.304;2023-05-01T02:01:00;6.33;;;1.70;;
19251;SDS011;9760;50.944;5.304;2023-05-01T02:03:27;7.27;;;2.17;;
19251;SDS011;9760;50.944;5.304;2023-05-01T02:05:55;5.87;;;2.17;;
19251;SDS011;9760;50.944;5.304;2023-05-01T02:08:23;5.97;;;2.40;;
19251;SDS011;9760;50.944;5.304;2023-05-01T02:10:49;5.40;;;2.33;;
19251;SDS011;9760;50.944;5.304;2023-05-01T02:13:16;5.27;;;2.77;;
19251;SDS011;9760;50.944;5.304;2023-05-01T02:15:44;8.77;;;2.60;;
19251;SDS011;9760;50.944;5.304;2023-05-01T02:18:11;9.03;;;2.40;;
19251;SDS011;9760;50.944;5.304;2023-05-01T02:20:38;7.87;;;2.13;;
19251;SDS011;9760;50.944;5.304;2023-05-01T02:23:06;9.07;;;2.63;;
19251;SDS011;9760;50.944;5.304;2023-05-01T02:25:33;8.03;;;2.27;;
19251;SDS011;9760;50.944;5.304;2023-05-01T02:28:02;5.33;;;1.83;;
19251;SDS011;9760;50.944;5.304;2023-05-01T02:30:34;3.17;;;2.20;;
19251;SDS011;9760;50.944;5.304;2023-05-01T02:33:00;3.23;;;1.90;;
19251;SDS011;9760;50.944;5.304;2023-05-01T02:35:26;7.03;;;2.10;;
19251;SDS011;9760;50.944;5.304;2023-05-01T02:37:51;11.17;;;2.50;;
19251;SDS011;9760;50.944;5.304;2023-05-01T02:40:17;9.07;;;2.27;;
19251;SDS011;9760;50.944;5.304;2023-05-01T02:42:43;6.10;;;2.20;;
19251;SDS011;9760;50.944;5.304;2023-05-01T02:45:14;8.27;;;2.37;;
19251;SDS011;9760;50.944;5.304;2023-05-01T02:47:43;4.90;;;2.20;;
19251;SDS011;9760;50.944;5.304;2023-05-01T02:50:12;6.57;;;2.17;;
19251;SDS011;9760;50.944;5.304;2023-05-01T02:52:39;5.67;;;2.40;;
19251;SDS011;9760;50.944;5.304;2023-05-01T02:55:06;7.30;;;2.53;;
19251;SDS011;9760;50.944;5.304;2023-05-01T02:57:32;6.80;;;2.30;;
19251;SDS011;9760;50.944;5.304;2023-05-01T02:59:58;7.83;;;2.50;;
19251;SDS011;9760;50.944;5.304;2023-05-01T03:02:24;7.67;;;2.73;;
19251;SDS011;9760;50.944;5.304;2023-05-01T03:04:50;6.57;;;2.00;;
19251;SDS011;9760;50.944;5.304;2023-05-01T03:07:16;3.40;;;2.13;;
19251;SDS011;9760;50.944;5.304;2023-05-01T03:09:42;5.67;;;2.20;;
19251;SDS011;9760;50.944;5.304;2023-05-01T03:12:07;6.80;;;2.60;;
19251;SDS011;9760;50.944;5.304;2023-05-01T03:14:33;5.83;;;2.63;;
19251;SDS011;9760;50.944;5.304;2023-05-01T03:16:59;4.27;;;2.30;;
19251;SDS011;9760;50.944;5.304;2023-05-01T03:19:24;5.97;;;2.40;;
19251;SDS011;9760;50.944;5.304;2023-05-01T03:21:50;7.23;;;2.60;;
19251;SDS011;9760;50.944;5.304;2023-05-01T03:24:16;12.17;;;2.27;;
19251;SDS011;9760;50.944;5.304;2023-05-01T03:26:41;7.07;;;2.23;;
19251;SDS011;9760;50.944;5.304;2023-05-01T03:29:07;5.83;;;2.67;;
19251;SDS011;9760;50.944;5.304;2023-05-01T03:31:33;6.80;;;2.50;;
19251;SDS011;9760;50.944;5.304;2023-05-01T03:33:59;5.27;;;2.60;;
19251;SDS011;9760;50.944;5.304;2023-05-01T03:36:25;4.53;;;2.57;;
19251;SDS011;9760;50.944;5.304;2023-05-01T03:38:51;7.10;;;2.70;;
19251;SDS011;9760;50.944;5.304;2023-05-01T03:41:17;9.20;;;2.80;;
19251;SDS011;9760;50.944;5.304;2023-05-01T03:43:43;5.07;;;2.57;;
19251;SDS011;9760;50.944;5.304;2023-05-01T03:46:08;8.80;;;2.80;;
19251;SDS011;9760;50.944;5.304;2023-05-01T03:48:34;6.00;;;2.50;;
19251;SDS011;9760;50.944;5.304;2023-05-01T03:51:00;6.10;;;2.57;;
19251;SDS011;9760;50.944;5.304;2023-05-01T03:53:25;5.57;;;2.93;;
19251;SDS011;9760;50.944;5.304;2023-05-01T03:55:51;5.43;;;3.13;;
19251;SDS011;9760;50.944;5.304;2023-05-01T03:58:17;5.00;;;3.17;;
19251;SDS011;9760;50.944;5.304;2023-05-01T04:00:42;6.43;;;2.77;;
19251;SDS011;9760;50.944;5.304;2023-05-01T04:03:08;5.70;;;3.00;;
19251;SDS011;9760;50.944;5.304;2023-05-01T04:05:34;10.97;;;2.97;;
19251;SDS011;9760;50.944;5.304;2023-05-01T04:08:00;7.47;;;3.13;;
19251;SDS011;9760;50.944;5.304;2023-05-01T04:10:25;5.07;;;2.80;;
19251;SDS011;9760;50.944;5.304;2023-05-01T04:12:51;8.47;;;3.10;;
19251;SDS011;9760;50.944;5.304;2023-05-01T04:15:17;10.50;;;2.97;;
19251;SDS011;9760;50.944;5.304;2023-05-01T04:17:42;8.63;;;3.33;;
19251;SDS011;9760;50.944;5.304;2023-05-01T04:20:08;8.20;;;3.83;;
19251;SDS011;9760;50.944;5.304;2023-05-01T04:22:35;10.20;;;3.23;;
19251;SDS011;9760;50.944;5.304;2023-05-01T04:25:01;5.10;;;3.20;;
19251;SDS011;9760;50.944;5.304;2023-05-01T04:27:27;9.33;;;3.53;;
19251;SDS011;9760;50.944;5.304;2023-05-01T04:29:53;8.83;;;2.93;;
19251;SDS011;9760;50.944;5.304;2023-05-01T04:32:19;17.40;;;4.23;;
19251;SDS011;9760;50.944;5.304;2023-05-01T04:34:45;5.40;;;3.03;;
19251;SDS011;9760;50.944;5.304;2023-05-01T04:37:11;9.20;;;3.20;;
19251;SDS011;9760;50.944;5.304;2023-05-01T04:39:38;6.47;;;3.17;;
19251;SDS011;9760;50.944;5.304;2023-05-01T04:42:04;6.17;;;3.50;;
19251;SDS011;9760;50.944;5.304;2023-05-01T04:44:30;7.83;;;3.77;;
19251;SDS011;9760;50.944;5.304;2023-05-01T04:46:58;6.93;;;3.23;;
19251;SDS011;9760;50.944;5.304;2023-05-01T04:49:28;7.50;;;3.30;;
19251;SDS011;9760;50.944;5.304;2023-05-01T04:51:53;4.73;;;3.20;;
19251;SDS011;9760;50.944;5.304;2023-05-01T04:54:19;11.17;;;3.63;;
19251;SDS011;9760;50.944;5.304;2023-05-01T04:56:44;11.63;;;3.40;;
19251;SDS011;9760;50.944;5.304;2023-05-01T04:59:10;8.10;;;3.33;;
19251;SDS011;9760;50.944;5.304;2023-05-01T05:01:36;9.77;;;3.00;;
19251;SDS011;9760;50.944;5.304;2023-05-01T05:04:01;8.70;;;3.37;;
19251;SDS011;9760;50.944;5.304;2023-05-01T05:06:27;9.83;;;3.63;;
19251;SDS011;9760;50.944;5.304;2023-05-01T05:08:53;5.87;;;3.10;;
19251;SDS011;9760;50.944;5.304;2023-05-01T05:11:19;6.10;;;3.27;;
19251;SDS011;9760;50.944;5.304;2023-05-01T05:13:45;11.60;;;3.40;;
19251;SDS011;9760;50.944;5.304;2023-05-01T05:16:11;5.90;;;3.40;;
19251;SDS011;9760;50.944;5.304;2023-05-01T05:18:37;6.23;;;3.37;;
19251;SDS011;9760;50.944;5.304;2023-05-01T05:21:03;8.67;;;3.30;;
19251;SDS011;9760;50.944;5.304;2023-05-01T05:23:30;8.93;;;3.40;;
19251;SDS011;9760;50.944;5.304;2023-05-01T05:25:55;7.20;;;3.30;;
19251;SDS011;9760;50.944;5.304;2023-05-01T05:28:25;20.80;;;4.40;;
19251;SDS011;9760;50.944;5.304;2023-05-01T05:30:52;5.87;;;3.30;;
19251;SDS011;9760;50.944;5.304;2023-05-01T05:33:19;12.80;;;3.80;;
19251;SDS011;9760;50.944;5.304;2023-05-01T05:35:44;5.90;;;3.37;;
19251;SDS011;9760;50.944;5.304;2023-05-01T05:38:10;5.57;;;3.33;;
19251;SDS011;9760;50.944;5.304;2023-05-01T05:40:36;5.70;;;3.40;;
19251;SDS011;9760;50.944;5.304;2023-05-01T05:43:01;6.37;;;3.27;;
19251;SDS011;9760;50.944;5.304;2023-05-01T05:45:27;8.20;;;3.70;;
19251;SDS011;9760;50.944;5.304;2023-05-01T05:47:53;7.53;;;3.50;;
19251;SDS011;9760;50.944;5.304;2023-05-01T05:50:18;9.50;;;4.13;;
19251;SDS011;9760;50.944;5.304;2023-05-01T05:52:44;6.73;;;3.53;;
19251;SDS011;9760;50.944;5.304;2023-05-01T05:55:10;7.57;;;3.70;;
19251;SDS011;9760;50.944;5.304;2023-05-01T05:57:36;8.03;;;4.00;;
19251;SDS011;9760;50.944;5.304;2023-05-01T06:00:02;7.60;;;3.80;;
19251;SDS011;9760;50.944;5.304;2023-05-01T06:02:31;6.77;;;4.20;;
19251;SDS011;9760;50.944;5.304;2023-05-01T06:04:57;9.73;;;4.60;;
19251;SDS011;9760;50.944;5.304;2023-05-01T06:07:23;11.53;;;4.80;;
19251;SDS011;9760;50.944;5.304;2023-05-01T06:09:50;8.00;;;4.27;;
19251;SDS011;9760;50.944;5.304;2023-05-01T06:12:16;7.50;;;4.80;;
19251;SDS011;9760;50.944;5.304;2023-05-01T06:14:41;8.67;;;4.53;;
19251;SDS011;9760;50.944;5.304;2023-05-01T06:17:07;10.60;;;6.17;;
19251;SDS011;9760;50.944;5.304;2023-05-01T06:19:33;11.30;;;5.40;;
19251;SDS011;9760;50.944;5.304;2023-05-01T06:22:00;11.13;;;5.70;;
19251;SDS011;9760;50.944;5.304;2023-05-01T06:24:25;7.47;;;4.87;;
19251;SDS011;9760;50.944;5.304;2023-05-01T06:26:51;9.93;;;5.43;;
19251;SDS011;9760;50.944;5.304;2023-05-01T06:29:17;7.60;;;5.00;;
19251;SDS011;9760;50.944;5.304;2023-05-01T06:31:43;11.63;;;5.30;;
19251;SDS011;9760;50.944;5.304;2023-05-01T06:34:09;8.27;;;4.50;;
19251;SDS011;9760;50.944;5.304;2023-05-01T06:36:35;7.73;;;4.43;;
19251;SDS011;9760;50.944;5.304;2023-05-01T06:39:01;8.10;;;4.50;;
19251;SDS011;9760;50.944;5.304;2023-05-01T06:41:26;6.30;;;4.20;;
19251;SDS011;9760;50.944;5.304;2023-05-01T06:43:52;10.87;;;4.63;;
19251;SDS011;9760;50.944;5.304;2023-05-01T06:46:18;8.43;;;4.57;;
19251;SDS011;9760;50.944;5.304;2023-05-01T06:48:43;7.73;;;4.53;;
19251;SDS011;9760;50.944;5.304;2023-05-01T06:51:09;7.77;;;4.93;;
19251;SDS011;9760;50.944;5.304;2023-05-01T06:53:35;11.23;;;5.83;;
19251;SDS011;9760;50.944;5.304;2023-05-01T06:56:01;7.50;;;5.00;;
19251;SDS011;9760;50.944;5.304;2023-05-01T06:58:27;15.57;;;6.20;;
19251;SDS011;9760;50.944;5.304;2023-05-01T07:00:53;15.73;;;7.40;;
19251;SDS011;9760;50.944;5.304;2023-05-01T07:03:18;10.03;;;6.43;;
19251;SDS011;9760;50.944;5.304;2023-05-01T07:05:44;12.93;;;6.67;;
19251;SDS011;9760;50.944;5.304;2023-05-01T07:08:10;12.33;;;6.40;;
19251;SDS011;9760;50.944;5.304;2023-05-01T07:10:35;12.67;;;5.73;;
19251;SDS011;9760;50.944;5.304;2023-05-01T07:13:01;13.60;;;5.80;;
19251;SDS011;9760;50.944;5.304;2023-05-01T07:15:27;12.63;;;7.03;;
19251;SDS011;9760;50.944;5.304;2023-05-01T07:17:53;12.37;;;6.77;;
19251;SDS011;9760;50.944;5.304;2023-05-01T07:20:20;17.13;;;7.07;;
19251;SDS011;9760;50.944;5.304;2023-05-01T07:22:45;12.37;;;6.83;;
19251;SDS011;9760;50.944;5.304;2023-05-01T07:25:11;14.63;;;6.47;;
19251;SDS011;9760;50.944;5.304;2023-05-01T07:27:38;11.73;;;6.77;;
19251;SDS011;9760;50.944;5.304;2023-05-01T07:30:04;14.43;;;6.63;;
19251;SDS011;9760;50.944;5.304;2023-05-01T07:32:30;13.37;;;6.73;;
19251;SDS011;9760;50.944;5.304;2023-05-01T07:34:57;12.67;;;7.03;;
19251;SDS011;9760;50.944;5.304;2023-05-01T07:37:23;19.27;;;9.63;;
19251;SDS011;9760;50.944;5.304;2023-05-01T07:39:50;18.40;;;7.80;;
19251;SDS011;9760;50.944;5.304;2023-05-01T07:42:16;18.10;;;7.80;;
19251;SDS011;9760;50.944;5.304;2023-05-01T07:44:42;10.53;;;6.93;;
19251;SDS011;9760;50.944;5.304;2023-05-01T07:47:07;14.20;;;7.13;;
19251;SDS011;9760;50.944;5.304;2023-05-01T07:49:36;12.50;;;7.17;;
19251;SDS011;9760;50.944;5.304;2023-05-01T07:52:04;13.07;;;7.10;;
19251;SDS011;9760;50.944;5.304;2023-05-01T07:54:31;11.77;;;6.63;;
19251;SDS011;9760;50.944;5.304;2023-05-01T07:56:57;10.43;;;6.60;;
19251;SDS011;9760;50.944;5.304;2023-05-01T07:59:23;10.93;;;7.00;;
19251;SDS011;9760;50.944;5.304;2023-05-01T08:01:49;12.30;;;6.97;;
19251;SDS011;9760;50.944;5.304;2023-05-01T08:04:14;10.97;;;6.40;;
19251;SDS011;9760;50.944;5.304;2023-05-01T08:06:41;12.57;;;6.83;;
19251;SDS011;9760;50.944;5.304;2023-05-01T08:09:07;12.60;;;7.20;;
19251;SDS011;9760;50.944;5.304;2023-05-01T08:11:32;13.23;;;7.30;;
19251;SDS011;9760;50.944;5.304;2023-05-01T08:13:58;11.33;;;7.33;;
19251;SDS011;9760;50.944;5.304;2023-05-01T08:16:24;14.73;;;6.80;;
19251;SDS011;9760;50.944;5.304;2023-05-01T08:18:49;14.33;;;8.77;;
19251;SDS011;9760;50.944;5.304;2023-05-01T08:21:15;11.03;;;7.07;;
19251;SDS011;9760;50.944;5.304;2023-05-01T08:23:41;11.20;;;6.83;;
19251;SDS011;9760;50.944;5.304;2023-05-01T08:26:06;13.13;;;6.70;;
19251;SDS011;9760;50.944;5.304;2023-05-01T08:28:35;10.07;;;6.07;;
19251;SDS011;9760;50.944;5.304;2023-05-01T08:31:01;15.87;;;6.40;;
19251;SDS011;9760;50.944;5.304;2023-05-01T08:33:27;9.43;;;6.00;;
19251;SDS011;9760;50.944;5.304;2023-05-01T08:35:53;11.47;;;6.37;;
19251;SDS011;9760;50.944;5.304;2023-05-01T08:38:19;9.50;;;6.10;;
19251;SDS011;9760;50.944;5.304;2023-05-01T08:40:51;10.47;;;5.97;;
19251;SDS011;9760;50.944;5.304;2023-05-01T08:43:18;9.93;;;6.17;;
19251;SDS011;9760;50.944;5.304;2023-05-01T08:45:44;13.07;;;6.40;;
19251;SDS011;9760;50.944;5.304;2023-05-01T08:48:11;10.20;;;6.47;;
19251;SDS011;9760;50.944;5.304;2023-05-01T08:50:39;11.17;;;6.17;;
19251;SDS011;9760;50.944;5.304;2023-05-01T08:53:09;16.70;;;6.30;;
19251;SDS011;9760;50.944;5.304;2023-05-01T08:55:36;10.00;;;6.27;;
19251;SDS011;9760;50.944;5.304;2023-05-01T08:58:03;9.63;;;5.93;;
19251;SDS011;9760;50.944;5.304;2023-05-01T09:00:32;11.87;;;6.30;;
19251;SDS011;9760;50.944;5.304;2023-05-01T09:03:00;10.47;;;5.90;;
19251;SDS011;9760;50.944;5.304;2023-05-01T09:05:30;9.53;;;5.90;;
19251;SDS011;9760;50.944;5.304;2023-05-01T09:07:56;10.77;;;6.07;;
19251;SDS011;9760;50.944;5.304;2023-05-01T09:10:23;10.53;;;6.10;;
19251;SDS011;9760;50.944;5.304;2023-05-01T09:12:56;8.67;;;5.70;;
19251;SDS011;9760;50.944;5.304;2023-05-01T09:15:28;8.90;;;5.97;;
19251;SDS011;9760;50.944;5.304;2023-05-01T09:17:55;10.70;;;6.00;;
19251;SDS011;9760;50.944;5.304;2023-05-01T09:20:23;15.87;;;6.80;;
19251;SDS011;9760;50.944;5.304;2023-05-01T09:22:50;19.27;;;6.63;;
19251;SDS011;9760;50.944;5.304;2023-05-01T09:25:16;10.87;;;6.10;;
19251;SDS011;9760;50.944;5.304;2023-05-01T09:27:43;11.37;;;6.00;;
19251;SDS011;9760;50.944;5.304;2023-05-01T09:30:10;15.83;;;5.77;;
19251;SDS011;9760;50.944;5.304;2023-05-01T09:33:10;10.40;;;5.60;;
19251;SDS011;9760;50.944;5.304;2023-05-01T09:35:47;13.97;;;6.03;;
19251;SDS011;9760;50.944;5.304;2023-05-01T09:38:17;10.43;;;5.60;;
19251;SDS011;9760;50.944;5.304;2023-05-01T09:40:47;10.60;;;5.63;;
19251;SDS011;9760;50.944;5.304;2023-05-01T09:43:15;9.77;;;5.10;;
19251;SDS011;9760;50.944;5.304;2023-05-01T09:48:31;8.50;;;5.20;;
19251;SDS011;9760;50.944;5.304;2023-05-01T09:50:57;13.57;;;5.40;;
19251;SDS011;9760;50.944;5.304;2023-05-01T09:53:36;11.53;;;5.30;;
19251;SDS011;9760;50.944;5.304;2023-05-01T09:56:03;11.23;;;5.40;;
19251;SDS011;9760;50.944;5.304;2023-05-01T09:58:29;9.50;;;5.17;;
19251;SDS011;9760;50.944;5.304;2023-05-01T10:00:54;12.83;;;5.37;;
19251;SDS011;9760;50.944;5.304;2023-05-01T10:03:20;10.03;;;5.63;;
19251;SDS011;9760;50.944;5.304;2023-05-01T10:05:46;7.90;;;4.80;;
19251;SDS011;9760;50.944;5.304;2023-05-01T10:08:12;9.57;;;4.63;;
19251;SDS011;9760;50.944;5.304;2023-05-01T10:10:42;13.13;;;5.07;;
19251;SDS011;9760;50.944;5.304;2023-05-01T10:13:16;11.77;;;5.60;;
19251;SDS011;9760;50.944;5.304;2023-05-01T10:15:43;10.13;;;5.63;;
19251;SDS011;9760;50.944;5.304;2023-05-01T10:18:12;9.10;;;4.83;;
19251;SDS011;9760;50.944;5.304;2023-05-01T10:20:39;16.27;;;5.40;;
19251;SDS011;9760;50.944;5.304;2023-05-01T10:23:05;10.93;;;5.10;;
19251;SDS011;9760;50.944;5.304;2023-05-01T10:25:31;8.20;;;4.33;;
19251;SDS011;9760;50.944;5.304;2023-05-01T10:27:57;8.17;;;4.43;;
19251;SDS011;9760;50.944;5.304;2023-05-01T10:30:27;11.57;;;4.80;;
19251;SDS011;9760;50.944;5.304;2023-05-01T10:32:54;10.03;;;4.60;;
19251;SDS011;9760;50.944;5.304;2023-05-01T10:35:33;7.50;;;5.00;;
19251;SDS011;9760;50.944;5.304;2023-05-01T10:38:06;11.60;;;4.93;;
19251;SDS011;9760;50.944;5.304;2023-05-01T10:45:50;6.70;;;3.80;;
19251;SDS011;9760;50.944;5.304;2023-05-01T10:53:41;7.83;;;4.93;;
19251;SDS011;9760;50.944;5.304;2023-05-01T11:07:31;10.33;;;4.77;;
19251;SDS011;9760;50.944;5.304;2023-05-01T11:09:36;9.13;;;4.47;;
19251;SDS011;9760;50.944;5.304;2023-05-01T11:12:03;7.87;;;4.13;;
19251;SDS011;9760;50.944;5.304;2023-05-01T11:20:08;10.97;;;5.13;;
19251;SDS011;9760;50.944;5.304;2023-05-01T11:22:52;10.07;;;4.77;;
19251;SDS011;9760;50.944;5.304;2023-05-01T11:25:19;9.60;;;5.40;;
19251;SDS011;9760;50.944;5.304;2023-05-01T11:27:47;11.43;;;5.67;;
19251;SDS011;9760;50.944;5.304;2023-05-01T11:30:14;9.60;;;5.97;;
19251;SDS011;9760;50.944;5.304;2023-05-01T11:32:42;18.67;;;6.17;;
19251;SDS011;9760;50.944;5.304;2023-05-01T11:35:19;9.80;;;6.27;;
19251;SDS011;9760;50.944;5.304;2023-05-01T11:37:52;12.67;;;6.47;;
19251;SDS011;9760;50.944;5.304;2023-05-01T11:42:47;10.63;;;6.50;;
19251;SDS011;9760;50.944;5.304;2023-05-01T11:45:13;15.27;;;6.63;;
19251;SDS011;9760;50.944;5.304;2023-05-01T11:47:39;11.47;;;6.73;;
19251;SDS011;9760;50.944;5.304;2023-05-01T11:50:06;13.23;;;6.17;;
19251;SDS011;9760;50.944;5.304;2023-05-01T11:52:49;9.07;;;6.87;;
19251;SDS011;9760;50.944;5.304;2023-05-01T11:55:19;13.53;;;6.93;;
19251;SDS011;9760;50.944;5.304;2023-05-01T11:57:52;11.60;;;6.90;;
19251;SDS011;9760;50.944;5.304;2023-05-01T12:00:30;13.80;;;7.00;;
19251;SDS011;9760;50.944;5.304;2023-05-01T12:05:30;16.27;;;8.13;;
19251;SDS011;9760;50.944;5.304;2023-05-01T12:10:49;15.93;;;8.70;;
19251;SDS011;9760;50.944;5.304;2023-05-01T12:13:21;17.03;;;8.43;;
19251;SDS011;9760;50.944;5.304;2023-05-01T12:15:51;18.93;;;8.90;;
19251;SDS011;9760;50.944;5.304;2023-05-01T12:18:18;16.00;;;8.17;;
19251;SDS011;9760;50.944;5.304;2023-05-01T12:20:52;13.43;;;8.00;;
19251;SDS011;9760;50.944;5.304;2023-05-01T12:23:19;19.07;;;9.17;;
19251;SDS011;9760;50.944;5.304;2023-05-01T12:26:18;15.00;;;9.07;;
19251;SDS011;9760;50.944;5.304;2023-05-01T12:28:58;15.87;;;9.47;;
19251;SDS011;9760;50.944;5.304;2023-05-01T12:31:26;17.40;;;9.40;;
19251;SDS011;9760;50.944;5.304;2023-05-01T12:36:20;15.07;;;9.10;;
19251;SDS011;9760;50.944;5.304;2023-05-01T12:41:30;17.37;;;10.03;;
19251;SDS011;9760;50.944;5.304;2023-05-01T12:46:44;19.03;;;11.33;;
19251;SDS011;9760;50.944;5.304;2023-05-01T12:49:17;18.67;;;10.40;;
19251;SDS011;9760;50.944;5.304;2023-05-01T12:51:47;16.97;;;10.80;;
19251;SDS011;9760;50.944;5.304;2023-05-01T12:54:19;17.43;;;10.67;;
19251;SDS011;9760;50.944;5.304;2023-05-01T12:56:50;20.03;;;10.03;;
19251;SDS011;9760;50.944;5.304;2023-05-01T12:59:19;19.83;;;9.27;;
19251;SDS011;9760;50.944;5.304;2023-05-01T13:01:56;21.17;;;10.00;;
19251;SDS011;9760;50.944;5.304;2023-05-01T13:04:23;15.17;;;8.60;;
19251;SDS011;9760;50.944;5.304;2023-05-01T13:06:49;14.93;;;7.83;;
19251;SDS011;9760;50.944;5.304;2023-05-01T13:09:16;13.97;;;7.20;;
19251;SDS011;9760;50.944;5.304;2023-05-01T13:11:41;10.47;;;6.40;;
19251;SDS011;9760;50.944;5.304;2023-05-01T13:14:07;11.17;;;5.67;;
19251;SDS011;9760;50.944;5.304;2023-05-01T13:16:41;18.67;;;5.33;;
19251;SDS011;9760;50.944;5.304;2023-05-01T13:19:10;9.57;;;5.87;;
19251;SDS011;9760;50.944;5.304;2023-05-01T13:21:44;11.67;;;5.27;;
19251;SDS011;9760;50.944;5.304;2023-05-01T13:24:12;11.50;;;5.43;;
19251;SDS011;9760;50.944;5.304;2023-05-01T13:26:37;11.87;;;5.20;;
19251;SDS011;9760;50.944;5.304;2023-05-01T13:29:03;9.13;;;5.20;;
19251;SDS011;9760;50.944;5.304;2023-05-01T13:31:29;9.63;;;5.87;;
19251;SDS011;9760;50.944;5.304;2023-05-01T13:33:58;11.60;;;6.17;;
19251;SDS011;9760;50.944;5.304;2023-05-01T13:36:24;8.33;;;4.70;;
19251;SDS011;9760;50.944;5.304;2023-05-01T13:38:53;12.43;;;5.40;;
19251;SDS011;9760;50.944;5.304;2023-05-01T13:41:20;9.17;;;5.60;;
19251;SDS011;9760;50.944;5.304;2023-05-01T13:43:47;14.30;;;5.80;;
19251;SDS011;9760;50.944;5.304;2023-05-01T13:46:14;8.40;;;4.93;;
19251;SDS011;9760;50.944;5.304;2023-05-01T13:48:41;8.07;;;5.57;;
19251;SDS011;9760;50.944;5.304;2023-05-01T13:51:08;7.17;;;5.03;;
19251;SDS011;9760;50.944;5.304;2023-05-01T13:53:34;9.30;;;4.57;;
19251;SDS011;9760;50.944;5.304;2023-05-01T13:56:04;8.60;;;4.83;;
19251;SDS011;9760;50.944;5.304;2023-05-01T13:58:34;8.67;;;5.40;;
19251;SDS011;9760;50.944;5.304;2023-05-01T14:01:00;7.53;;;5.20;;
19251;SDS011;9760;50.944;5.304;2023-05-01T14:03:29;11.47;;;5.77;;
19251;SDS011;9760;50.944;5.304;2023-05-01T14:06:00;9.43;;;5.33;;
19251;SDS011;9760;50.944;5.304;2023-05-01T14:08:27;8.87;;;5.03;;
19251;SDS011;9760;50.944;5.304;2023-05-01T14:10:57;14.03;;;5.20;;
19251;SDS011;9760;50.944;5.304;2023-05-01T14:13:22;6.77;;;4.57;;
19251;SDS011;9760;50.944;5.304;2023-05-01T14:15:51;8.33;;;5.53;;
19251;SDS011;9760;50.944;5.304;2023-05-01T14:18:17;9.77;;;5.40;;
19251;SDS011;9760;50.944;5.304;2023-05-01T14:20:44;10.10;;;6.60;;
19251;SDS011;9760;50.944;5.304;2023-05-01T14:23:15;11.43;;;6.70;;
19251;SDS011;9760;50.944;5.304;2023-05-01T14:25:43;13.67;;;7.00;;
19251;SDS011;9760;50.944;5.304;2023-05-01T14:28:09;15.07;;;7.60;;
19251;SDS011;9760;50.944;5.304;2023-05-01T14:30:38;13.03;;;6.70;;
19251;SDS011;9760;50.944;5.304;2023-05-01T14:33:08;13.23;;;7.77;;
19251;SDS011;9760;50.944;5.304;2023-05-01T14:35:36;11.67;;;6.97;;
19251;SDS011;9760;50.944;5.304;2023-05-01T14:38:09;14.03;;;6.90;;
19251;SDS011;9760;50.944;5.304;2023-05-01T14:40:38;13.40;;;7.23;;
19251;SDS011;9760;50.944;5.304;2023-05-01T14:43:06;16.73;;;7.47;;
19251;SDS011;9760;50.944;5.304;2023-05-01T14:45:34;13.07;;;7.80;;
19251;SDS011;9760;50.944;5.304;2023-05-01T14:48:02;13.47;;;8.20;;
19251;SDS011;9760;50.944;5.304;2023-05-01T14:50:28;12.13;;;8.53;;
19251;SDS011;9760;50.944;5.304;2023-05-01T14:52:56;15.63;;;10.70;;
19251;SDS011;9760;50.944;5.304;2023-05-01T14:55:26;16.20;;;10.30;;
19251;SDS011;9760;50.944;5.304;2023-05-01T14:57:53;13.60;;;10.47;;
19251;SDS011;9760;50.944;5.304;2023-05-01T15:00:21;18.60;;;10.43;;
19251;SDS011;9760;50.944;5.304;2023-05-01T15:02:47;17.77;;;10.43;;
19251;SDS011;9760;50.944;5.304;2023-05-01T15:05:13;14.33;;;9.37;;
19251;SDS011;9760;50.944;5.304;2023-05-01T15:07:39;17.13;;;10.90;;
19251;SDS011;9760;50.944;5.304;2023-05-01T15:10:06;19.33;;;12.00;;
19251;SDS011;9760;50.944;5.304;2023-05-01T15:12:32;26.17;;;15.60;;
19251;SDS011;9760;50.944;5.304;2023-05-01T15:14:57;28.77;;;16.13;;
19251;SDS011;9760;50.944;5.304;2023-05-01T15:17:23;21.97;;;14.10;;
19251;SDS011;9760;50.944;5.304;2023-05-01T15:19:49;21.03;;;14.27;;
19251;SDS011;9760;50.944;5.304;2023-05-01T15:22:14;20.03;;;14.10;;
19251;SDS011;9760;50.944;5.304;2023-05-01T15:24:40;24.77;;;14.80;;
19251;SDS011;9760;50.944;5.304;2023-05-01T15:27:06;24.30;;;16.60;;
19251;SDS011;9760;50.944;5.304;2023-05-01T15:29:32;26.03;;;15.93;;
19251;SDS011;9760;50.944;5.304;2023-05-01T15:31:58;23.50;;;16.20;;
19251;SDS011;9760;50.944;5.304;2023-05-01T15:34:24;21.60;;;14.23;;
19251;SDS011;9760;50.944;5.304;2023-05-01T15:36:51;16.37;;;10.67;;
19251;SDS011;9760;50.944;5.304;2023-05-01T15:39:17;16.60;;;10.97;;
19251;SDS011;9760;50.944;5.304;2023-05-01T15:41:44;15.10;;;9.87;;
19251;SDS011;9760;50.944;5.304;2023-05-01T15:44:10;20.23;;;9.23;;
19251;SDS011;9760;50.944;5.304;2023-05-01T15:46:36;10.00;;;7.93;;
19251;SDS011;9760;50.944;5.304;2023-05-01T15:49:02;11.93;;;8.27;;